sensor_id;sensor_type;location;lat;lon;timestamp;pressure;altitude;pressure_sealevel;temperature;humidity
82245;BME280;71849;50.096;14.458;2024-03-23T00:54:43;98794.69;;;16.34;49.98
82245;BME280;71849;50.096;14.458;2024-03-23T00:57:11;98789.75;;;16.31;50.03
82245;BME280;71849;50.096;14.458;2024-03-23T00:59:37;98789.91;;;16.50;49.55
82245;BME280;71849;50.096;14.458;2024-03-23T01:02:03;98776.63;;;16.23;50.47
82245;BME280;71849;50.096;14.458;2024-03-23T01:04:29;98784.09;;;16.13;50.39
82245;BME280;71849;50.096;14.458;2024-03-23T01:06:55;98769.19;;;16.24;50.09
82245;BME280;71849;50.096;14.458;2024-03-23T01:09:21;98771.47;;;16.17;50.30
82245;BME280;71849;50.096;14.458;2024-03-23T01:11:47;98759.44;;;16.03;50.78
82245;BME280;71849;50.096;14.458;2024-03-23T01:14:15;98755.00;;;16.17;50.25
82245;BME280;71849;50.096;14.458;2024-03-23T01:16:41;98759.13;;;16.09;50.25
82245;BME280;71849;50.096;14.458;2024-03-23T01:19:07;98753.78;;;16.33;50.17
82245;BME280;71849;50.096;14.458;2024-03-23T01:21:33;98755.94;;;16.36;49.55
82245;BME280;71849;50.096;14.458;2024-03-23T01:23:59;98754.31;;;16.35;49.80
82245;BME280;71849;50.096;14.458;2024-03-23T01:26:25;98745.78;;;16.36;49.52
82245;BME280;71849;50.096;14.458;2024-03-23T01:28:50;98748.56;;;16.31;49.70
82245;BME280;71849;50.096;14.458;2024-03-23T01:31:19;98732.38;;;16.30;50.30
82245;BME280;71849;50.096;14.458;2024-03-23T01:33:45;98732.47;;;16.15;49.98
82245;BME280;71849;50.096;14.458;2024-03-23T01:36:11;98729.88;;;16.33;49.33
82245;BME280;71849;50.096;14.458;2024-03-23T01:38:38;98723.50;;;16.43;49.08
82245;BME280;71849;50.096;14.458;2024-03-23T01:41:04;98729.50;;;16.50;48.67
82245;BME280;71849;50.096;14.458;2024-03-23T01:43:30;98728.53;;;16.31;49.83
82245;BME280;71849;50.096;14.458;2024-03-23T01:45:56;98716.72;;;16.30;49.96
82245;BME280;71849;50.096;14.458;2024-03-23T01:48:25;98718.47;;;16.16;50.93
82245;BME280;71849;50.096;14.458;2024-03-23T01:50:50;98711.69;;;16.04;50.64
82245;BME280;71849;50.096;14.458;2024-03-23T01:53:16;98712.63;;;15.89;51.44
82245;BME280;71849;50.096;14.458;2024-03-23T01:55:42;98710.19;;;15.82;51.64
82245;BME280;71849;50.096;14.458;2024-03-23T01:58:08;98702.72;;;15.88;50.81
82245;BME280;71849;50.096;14.458;2024-03-23T02:00:34;98708.25;;;15.83;50.93
82245;BME280;71849;50.096;14.458;2024-03-23T02:03:00;98700.19;;;15.97;51.32
82245;BME280;71849;50.096;14.458;2024-03-23T02:05:29;98705.78;;;15.87;51.67
82245;BME280;71849;50.096;14.458;2024-03-23T02:07:55;98693.09;;;15.91;51.43
82245;BME280;71849;50.096;14.458;2024-03-23T02:10:21;98693.94;;;15.91;52.51
82245;BME280;71849;50.096;14.458;2024-03-23T02:12:47;98687.91;;;15.84;53.17
82245;BME280;71849;50.096;14.458;2024-03-23T02:15:13;98690.19;;;15.72;52.64
82245;BME280;71849;50.096;14.458;2024-03-23T02:17:38;98686.09;;;15.69;52.86
82245;BME280;71849;50.096;14.458;2024-03-23T02:20:05;98687.19;;;15.73;51.83
82245;BME280;71849;50.096;14.458;2024-03-23T02:22:37;98681.81;;;15.48;51.94
82245;BME280;71849;50.096;14.458;2024-03-23T02:25:06;98671.41;;;15.35;52.59
82245;BME280;71849;50.096;14.458;2024-03-23T02:27:33;98663.97;;;15.46;52.77
82245;BME280;71849;50.096;14.458;2024-03-23T02:29:59;98662.69;;;15.28;52.50
82245;BME280;71849;50.096;14.458;2024-03-23T02:32:25;98662.63;;;15.38;52.08
82245;BME280;71849;50.096;14.458;2024-03-23T02:34:50;98662.06;;;15.41;52.80
82245;BME280;71849;50.096;14.458;2024-03-23T02:37:16;98656.41;;;15.22;52.46
82245;BME280;71849;50.096;14.458;2024-03-23T02:39:42;98653.03;;;15.36;52.76
82245;BME280;71849;50.096;14.458;2024-03-23T02:42:11;98648.34;;;15.41;51.68
82245;BME280;71849;50.096;14.458;2024-03-23T02:44:36;98638.00;;;15.28;52.45
82245;BME280;71849;50.096;14.458;2024-03-23T02:47:02;98626.75;;;15.35;52.20
82245;BME280;71849;50.096;14.458;2024-03-23T02:49:28;98635.19;;;15.43;51.34
82245;BME280;71849;50.096;14.458;2024-03-23T02:51:54;98631.66;;;15.32;51.50
82245;BME280;71849;50.096;14.458;2024-03-23T02:54:20;98627.28;;;15.37;52.51
82245;BME280;71849;50.096;14.458;2024-03-23T02:56:46;98628.44;;;15.25;53.26
82245;BME280;71849;50.096;14.458;2024-03-23T02:59:14;98625.44;;;15.17;53.12
82245;BME280;71849;50.096;14.458;2024-03-23T03:01:40;98624.59;;;15.21;52.82
82245;BME280;71849;50.096;14.458;2024-03-23T03:04:06;98623.53;;;15.22;52.47
82245;BME280;71849;50.096;14.458;2024-03-23T03:06:32;98615.84;;;15.19;53.49
82245;BME280;71849;50.096;14.458;2024-03-23T03:08:58;98614.03;;;14.95;53.69
82245;BME280;71849;50.096;14.458;2024-03-23T03:11:24;98598.63;;;15.09;53.76
82245;BME280;71849;50.096;14.458;2024-03-23T03:13:50;98603.56;;;15.07;54.22
82245;BME280;71849;50.096;14.458;2024-03-23T03:16:18;98598.53;;;15.24;53.63
82245;BME280;71849;50.096;14.458;2024-03-23T03:18:44;98597.28;;;14.96;54.87
82245;BME280;71849;50.096;14.458;2024-03-23T03:21:11;98590.41;;;15.09;53.61
82245;BME280;71849;50.096;14.458;2024-03-23T03:23:37;98587.28;;;14.66;53.71
82245;BME280;71849;50.096;14.458;2024-03-23T03:26:03;98587.72;;;14.94;53.96
82245;BME280;71849;50.096;14.458;2024-03-23T03:28:29;98585.00;;;14.84;54.93
82245;BME280;71849;50.096;14.458;2024-03-23T03:30:55;98577.47;;;14.45;55.94
82245;BME280;71849;50.096;14.458;2024-03-23T03:33:23;98565.66;;;14.60;55.47
82245;BME280;71849;50.096;14.458;2024-03-23T03:35:49;98573.91;;;14.50;54.82
82245;BME280;71849;50.096;14.458;2024-03-23T03:38:20;98568.72;;;14.43;55.37
82245;BME280;71849;50.096;14.458;2024-03-23T03:40:46;98567.63;;;14.49;55.47
82245;BME280;71849;50.096;14.458;2024-03-23T03:43:12;98571.19;;;14.50;55.34
82245;BME280;71849;50.096;14.458;2024-03-23T03:45:38;98563.75;;;14.55;55.28
82245;BME280;71849;50.096;14.458;2024-03-23T03:48:04;98556.66;;;14.29;55.92
82245;BME280;71849;50.096;14.458;2024-03-23T03:50:32;98555.03;;;14.28;56.50
82245;BME280;71849;50.096;14.458;2024-03-23T03:52:58;98545.75;;;14.14;57.04
82245;BME280;71849;50.096;14.458;2024-03-23T03:55:24;98549.56;;;14.23;56.58
82245;BME280;71849;50.096;14.458;2024-03-23T03:57:50;98541.34;;;14.28;56.14
82245;BME280;71849;50.096;14.458;2024-03-23T04:00:16;98541.09;;;13.99;57.44
82245;BME280;71849;50.096;14.458;2024-03-23T04:02:42;98537.81;;;14.02;57.56
82245;BME280;71849;50.096;14.458;2024-03-23T04:05:08;98544.91;;;14.18;56.59
82245;BME280;71849;50.096;14.458;2024-03-23T04:07:37;98540.53;;;14.22;56.63
82245;BME280;71849;50.096;14.458;2024-03-23T04:10:03;98541.94;;;14.00;57.50
82245;BME280;71849;50.096;14.458;2024-03-23T04:12:29;98543.84;;;13.84;57.05
82245;BME280;71849;50.096;14.458;2024-03-23T04:14:55;98543.03;;;14.04;57.07
82245;BME280;71849;50.096;14.458;2024-03-23T04:17:21;98537.81;;;14.22;56.01
82245;BME280;71849;50.096;14.458;2024-03-23T04:19:47;98533.41;;;14.42;55.91
82245;BME280;71849;50.096;14.458;2024-03-23T04:22:12;98525.22;;;14.11;57.04
82245;BME280;71849;50.096;14.458;2024-03-23T04:24:41;98517.28;;;14.05;56.51
82245;BME280;71849;50.096;14.458;2024-03-23T04:27:07;98499.25;;;13.99;56.80
82245;BME280;71849;50.096;14.458;2024-03-23T04:29:33;98511.56;;;13.86;57.35
82245;BME280;71849;50.096;14.458;2024-03-23T04:31:59;98512.66;;;13.90;57.37
82245;BME280;71849;50.096;14.458;2024-03-23T04:34:25;98510.78;;;13.71;57.53
82245;BME280;71849;50.096;14.458;2024-03-23T04:36:50;98504.47;;;13.65;56.55
82245;BME280;71849;50.096;14.458;2024-03-23T04:39:16;98510.78;;;13.71;56.73
82245;BME280;71849;50.096;14.458;2024-03-23T04:41:45;98499.28;;;13.89;56.13
82245;BME280;71849;50.096;14.458;2024-03-23T04:44:11;98499.56;;;13.72;55.71
82245;BME280;71849;50.096;14.458;2024-03-23T04:46:37;98506.13;;;13.51;56.76
82245;BME280;71849;50.096;14.458;2024-03-23T04:49:02;98507.09;;;12.99;58.78
82245;BME280;71849;50.096;14.458;2024-03-23T04:51:35;98508.06;;;13.55;57.16
82245;BME280;71849;50.096;14.458;2024-03-23T04:54:02;98496.00;;;13.72;55.19
82245;BME280;71849;50.096;14.458;2024-03-23T04:56:27;98492.16;;;13.88;55.12
82245;BME280;71849;50.096;14.458;2024-03-23T04:58:56;98490.53;;;13.77;55.90
82245;BME280;71849;50.096;14.458;2024-03-23T05:01:23;98497.34;;;13.89;55.27
82245;BME280;71849;50.096;14.458;2024-03-23T05:03:49;98491.84;;;14.04;55.30
82245;BME280;71849;50.096;14.458;2024-03-23T05:06:14;98483.69;;;13.84;55.11
82245;BME280;71849;50.096;14.458;2024-03-23T05:08:40;98477.41;;;13.79;54.27
82245;BME280;71849;50.096;14.458;2024-03-23T05:11:06;98475.19;;;13.91;54.21
82245;BME280;71849;50.096;14.458;2024-03-23T05:13:32;98465.41;;;13.54;55.23
82245;BME280;71849;50.096;14.458;2024-03-23T05:16:00;98458.78;;;13.91;54.08
82245;BME280;71849;50.096;14.458;2024-03-23T05:18:26;98454.31;;;14.20;53.49
82245;BME280;71849;50.096;14.458;2024-03-23T05:20:55;98450.00;;;13.99;53.50
82245;BME280;71849;50.096;14.458;2024-03-23T05:23:21;98456.28;;;14.09;53.59
82245;BME280;71849;50.096;14.458;2024-03-23T05:25:47;98453.25;;;14.16;53.25
82245;BME280;71849;50.096;14.458;2024-03-23T05:28:13;98450.25;;;14.12;52.94
82245;BME280;71849;50.096;14.458;2024-03-23T05:30:39;98446.63;;;14.42;52.48
82245;BME280;71849;50.096;14.458;2024-03-23T05:33:08;98442.59;;;14.09;52.82
82245;BME280;71849;50.096;14.458;2024-03-23T05:35:34;98443.88;;;14.42;52.42
82245;BME280;71849;50.096;14.458;2024-03-23T05:38:00;98435.44;;;14.34;53.10
82245;BME280;71849;50.096;14.458;2024-03-23T05:40:26;98440.09;;;14.23;52.58
82245;BME280;71849;50.096;14.458;2024-03-23T05:42:52;98438.50;;;14.07;53.31
82245;BME280;71849;50.096;14.458;2024-03-23T05:45:18;98428.91;;;14.04;53.22
82245;BME280;71849;50.096;14.458;2024-03-23T05:47:44;98416.66;;;13.92;53.85
82245;BME280;71849;50.096;14.458;2024-03-23T05:50:13;98419.34;;;14.12;53.72
82245;BME280;71849;50.096;14.458;2024-03-23T05:52:39;98411.47;;;13.80;53.74
82245;BME280;71849;50.096;14.458;2024-03-23T05:55:05;98415.56;;;13.93;54.17
82245;BME280;71849;50.096;14.458;2024-03-23T05:57:31;98420.16;;;14.07;53.33
82245;BME280;71849;50.096;14.458;2024-03-23T05:59:57;98403.13;;;14.41;52.21
82245;BME280;71849;50.096;14.458;2024-03-23T06:02:24;98404.91;;;14.60;52.52
82245;BME280;71849;50.096;14.458;2024-03-23T06:04:50;98406.22;;;14.73;52.68
82245;BME280;71849;50.096;14.458;2024-03-23T06:07:18;98398.25;;;14.71;51.85
82245;BME280;71849;50.096;14.458;2024-03-23T06:09:44;98398.81;;;14.73;52.55
82245;BME280;71849;50.096;14.458;2024-03-23T06:12:10;98387.53;;;14.31;53.02
82245;BME280;71849;50.096;14.458;2024-03-23T06:14:36;98389.91;;;14.48;53.35
82245;BME280;71849;50.096;14.458;2024-03-23T06:17:01;98391.78;;;14.57;52.66
82245;BME280;71849;50.096;14.458;2024-03-23T06:19:27;98367.56;;;14.80;51.79
82245;BME280;71849;50.096;14.458;2024-03-23T06:21:53;98355.97;;;14.49;52.29
82245;BME280;71849;50.096;14.458;2024-03-23T06:24:22;98374.63;;;14.42;53.43
82245;BME280;71849;50.096;14.458;2024-03-23T06:26:48;98368.66;;;14.78;51.98
82245;BME280;71849;50.096;14.458;2024-03-23T06:29:14;98366.25;;;15.06;51.50
82245;BME280;71849;50.096;14.458;2024-03-23T06:31:39;98357.53;;;14.60;51.92
82245;BME280;71849;50.096;14.458;2024-03-23T06:34:05;98349.16;;;14.41;52.77
82245;BME280;71849;50.096;14.458;2024-03-23T06:36:31;98340.44;;;14.29;53.47
82245;BME280;71849;50.096;14.458;2024-03-23T06:38:57;98338.50;;;14.40;52.80
82245;BME280;71849;50.096;14.458;2024-03-23T06:41:26;98337.13;;;14.81;52.24
82245;BME280;71849;50.096;14.458;2024-03-23T06:43:52;98324.75;;;15.22;50.62
82245;BME280;71849;50.096;14.458;2024-03-23T06:46:18;98324.31;;;15.10;50.81
82245;BME280;71849;50.096;14.458;2024-03-23T06:48:44;98334.72;;;15.08;51.07
82245;BME280;71849;50.096;14.458;2024-03-23T06:51:10;98319.88;;;15.43;50.40
82245;BME280;71849;50.096;14.458;2024-03-23T06:53:36;98324.16;;;15.54;49.79
82245;BME280;71849;50.096;14.458;2024-03-23T06:56:03;98312.84;;;15.61;49.67
82245;BME280;71849;50.096;14.458;2024-03-23T06:58:31;98313.72;;;15.80;48.93
82245;BME280;71849;50.096;14.458;2024-03-23T07:00:57;98311.00;;;15.80;49.33
82245;BME280;71849;50.096;14.458;2024-03-23T07:03:23;98300.78;;;15.62;49.44
82245;BME280;71849;50.096;14.458;2024-03-23T07:05:49;98287.13;;;15.99;48.65
82245;BME280;71849;50.096;14.458;2024-03-23T07:08:15;98293.25;;;16.15;48.11
82245;BME280;71849;50.096;14.458;2024-03-23T07:10:41;98288.69;;;15.87;49.10
82245;BME280;71849;50.096;14.458;2024-03-23T07:13:07;98287.25;;;16.31;47.87
82245;BME280;71849;50.096;14.458;2024-03-23T07:15:35;98286.53;;;16.02;49.00
82245;BME280;71849;50.096;14.458;2024-03-23T07:18:01;98275.59;;;16.21;48.41
82245;BME280;71849;50.096;14.458;2024-03-23T07:20:27;98263.94;;;16.10;48.79
82245;BME280;71849;50.096;14.458;2024-03-23T07:22:53;98257.56;;;16.33;48.47
82245;BME280;71849;50.096;14.458;2024-03-23T07:25:20;98252.88;;;16.15;48.59
82245;BME280;71849;50.096;14.458;2024-03-23T07:27:47;98231.75;;;16.16;48.50
82245;BME280;71849;50.096;14.458;2024-03-23T07:30:13;98238.47;;;16.23;48.64
82245;BME280;71849;50.096;14.458;2024-03-23T07:32:44;98238.66;;;16.32;48.29
82245;BME280;71849;50.096;14.458;2024-03-23T07:35:10;98241.16;;;16.47;47.95
82245;BME280;71849;50.096;14.458;2024-03-23T07:37:35;98243.69;;;16.62;47.57
82245;BME280;71849;50.096;14.458;2024-03-23T07:40:01;98237.13;;;16.77;46.96
82245;BME280;71849;50.096;14.458;2024-03-23T07:42:27;98230.09;;;16.71;47.35
82245;BME280;71849;50.096;14.458;2024-03-23T07:44:53;98218.44;;;16.60;47.27
82245;BME280;71849;50.096;14.458;2024-03-23T07:47:20;98226.59;;;16.84;46.60
82245;BME280;71849;50.096;14.458;2024-03-23T07:49:48;98221.50;;;16.91;46.72
82245;BME280;71849;50.096;14.458;2024-03-23T07:52:14;98207.34;;;16.84;46.61
82245;BME280;71849;50.096;14.458;2024-03-23T07:54:40;98197.97;;;16.85;46.46
82245;BME280;71849;50.096;14.458;2024-03-23T07:57:06;98193.88;;;16.82;46.66
82245;BME280;71849;50.096;14.458;2024-03-23T07:59:32;98201.31;;;16.82;46.40
82245;BME280;71849;50.096;14.458;2024-03-23T08:01:58;98178.34;;;16.91;46.17
82245;BME280;71849;50.096;14.458;2024-03-23T08:04:24;98174.75;;;16.77;46.56
82245;BME280;71849;50.096;14.458;2024-03-23T08:06:52;98177.88;;;17.17;45.50
82245;BME280;71849;50.096;14.458;2024-03-23T08:09:18;98176.72;;;17.04;45.95
82245;BME280;71849;50.096;14.458;2024-03-23T08:11:44;98181.00;;;17.24;45.33
82245;BME280;71849;50.096;14.458;2024-03-23T08:14:10;98175.03;;;17.35;45.03
82245;BME280;71849;50.096;14.458;2024-03-23T08:16:35;98168.38;;;17.50;44.81
82245;BME280;71849;50.096;14.458;2024-03-23T08:19:01;98167.47;;;17.41;44.66
82245;BME280;71849;50.096;14.458;2024-03-23T08:21:28;98159.31;;;17.63;44.82
82245;BME280;71849;50.096;14.458;2024-03-23T08:23:56;98152.78;;;17.45;44.94
82245;BME280;71849;50.096;14.458;2024-03-23T08:26:22;98156.34;;;17.73;44.35
82245;BME280;71849;50.096;14.458;2024-03-23T08:28:48;98155.88;;;17.58;44.75
82245;BME280;71849;50.096;14.458;2024-03-23T08:31:14;98149.75;;;17.61;44.79
82245;BME280;71849;50.096;14.458;2024-03-23T08:33:40;98142.94;;;17.94;44.31
82245;BME280;71849;50.096;14.458;2024-03-23T08:36:07;98146.50;;;17.94;44.50
82245;BME280;71849;50.096;14.458;2024-03-23T08:38:34;98148.53;;;18.25;43.85
82245;BME280;71849;50.096;14.458;2024-03-23T08:41:03;98128.09;;;18.17;43.94
82245;BME280;71849;50.096;14.458;2024-03-23T08:43:30;98128.97;;;18.26;43.74
82245;BME280;71849;50.096;14.458;2024-03-23T08:46:03;98131.47;;;18.59;43.13
82245;BME280;71849;50.096;14.458;2024-03-23T08:48:29;98127.16;;;18.44;43.29
82245;BME280;71849;50.096;14.458;2024-03-23T08:50:59;98135.72;;;18.95;41.97
82245;BME280;71849;50.096;14.458;2024-03-23T08:53:27;98127.50;;;19.04;41.55
82245;BME280;71849;50.096;14.458;2024-03-23T08:55:53;98117.22;;;19.27;40.84
82245;BME280;71849;50.096;14.458;2024-03-23T08:58:23;98126.41;;;19.14;40.33
82245;BME280;71849;50.096;14.458;2024-03-23T09:00:50;98132.38;;;18.76;40.84
82245;BME280;71849;50.096;14.458;2024-03-23T09:03:16;98117.56;;;18.41;40.37
82245;BME280;71849;50.096;14.458;2024-03-23T09:05:42;98129.53;;;18.59;40.55
82245;BME280;71849;50.096;14.458;2024-03-23T09:08:08;98147.56;;;18.21;40.78
82245;BME280;71849;50.096;14.458;2024-03-23T09:10:37;98138.22;;;18.30;40.36
82245;BME280;71849;50.096;14.458;2024-03-23T09:13:04;98153.09;;;18.07;40.85
82245;BME280;71849;50.096;14.458;2024-03-23T09:15:33;98149.66;;;18.01;40.75
82245;BME280;71849;50.096;14.458;2024-03-23T09:17:59;98159.50;;;18.16;40.57
82245;BME280;71849;50.096;14.458;2024-03-23T09:20:25;98156.59;;;17.99;40.83
82245;BME280;71849;50.096;14.458;2024-03-23T09:22:51;98170.00;;;17.78;42.05
82245;BME280;71849;50.096;14.458;2024-03-23T09:25:16;98187.72;;;17.45;42.87
82245;BME280;71849;50.096;14.458;2024-03-23T09:27:43;98189.19;;;17.29;43.60
82245;BME280;71849;50.096;14.458;2024-03-23T09:30:14;98191.69;;;17.39;43.62
82245;BME280;71849;50.096;14.458;2024-03-23T09:32:43;98205.03;;;17.18;45.42
82245;BME280;71849;50.096;14.458;2024-03-23T09:35:10;98210.16;;;16.79;48.24
82245;BME280;71849;50.096;14.458;2024-03-23T09:37:35;98190.00;;;16.70;50.10
82245;BME280;71849;50.096;14.458;2024-03-23T09:40:02;98200.53;;;16.63;50.53
82245;BME280;71849;50.096;14.458;2024-03-23T09:42:28;98191.47;;;16.81;49.80
82245;BME280;71849;50.096;14.458;2024-03-23T09:44:56;98180.31;;;16.59;50.41
82245;BME280;71849;50.096;14.458;2024-03-23T09:47:23;98182.66;;;16.47;50.72
82245;BME280;71849;50.096;14.458;2024-03-23T09:49:53;98197.81;;;16.44;50.77
82245;BME280;71849;50.096;14.458;2024-03-23T09:52:19;98197.50;;;16.46;50.97
82245;BME280;71849;50.096;14.458;2024-03-23T09:54:45;98187.44;;;16.41;51.32
82245;BME280;71849;50.096;14.458;2024-03-23T09:57:10;98196.63;;;16.50;50.82
82245;BME280;71849;50.096;14.458;2024-03-23T09:59:36;98211.38;;;16.35;51.40
82245;BME280;71849;50.096;14.458;2024-03-23T10:02:02;98214.00;;;16.27;51.32
82245;BME280;71849;50.096;14.458;2024-03-23T10:04:39;98234.34;;;16.07;52.21
82245;BME280;71849;50.096;14.458;2024-03-23T10:07:15;98241.81;;;16.20;51.39
82245;BME280;71849;50.096;14.458;2024-03-23T10:09:42;98250.00;;;16.07;51.73
82245;BME280;71849;50.096;14.458;2024-03-23T10:12:09;98248.91;;;15.84;51.29
82245;BME280;71849;50.096;14.458;2024-03-23T10:14:36;98250.19;;;15.92;51.57
82245;BME280;71849;50.096;14.458;2024-03-23T10:17:13;98261.41;;;16.32;50.80
82245;BME280;71849;50.096;14.458;2024-03-23T10:19:43;98253.19;;;15.95;50.70
82245;BME280;71849;50.096;14.458;2024-03-23T10:22:13;98249.63;;;16.13;50.70
82245;BME280;71849;50.096;14.458;2024-03-23T10:24:41;98257.97;;;15.84;51.51
82245;BME280;71849;50.096;14.458;2024-03-23T10:27:07;98262.38;;;15.62;51.82
82245;BME280;71849;50.096;14.458;2024-03-23T10:29:33;98265.31;;;15.42;52.00
82245;BME280;71849;50.096;14.458;2024-03-23T10:32:09;98278.03;;;16.04;50.98
82245;BME280;71849;50.096;14.458;2024-03-23T10:34:35;98286.34;;;15.75;51.34
82245;BME280;71849;50.096;14.458;2024-03-23T10:37:02;98275.22;;;16.09;50.38
82245;BME280;71849;50.096;14.458;2024-03-23T10:39:30;98292.53;;;16.28;50.40
82245;BME280;71849;50.096;14.458;2024-03-23T10:42:02;98285.63;;;16.30;50.35
82245;BME280;71849;50.096;14.458;2024-03-23T10:44:29;98283.09;;;16.34;50.19
82245;BME280;71849;50.096;14.458;2024-03-23T10:46:55;98294.84;;;16.58;49.62
82245;BME280;71849;50.096;14.458;2024-03-23T10:49:22;98271.38;;;16.66;48.69
82245;BME280;71849;50.096;14.458;2024-03-23T10:51:47;98294.38;;;16.32;49.80
82245;BME280;71849;50.096;14.458;2024-03-23T10:54:13;98295.19;;;16.33;49.43
82245;BME280;71849;50.096;14.458;2024-03-23T10:56:40;98283.91;;;15.73;50.44
82245;BME280;71849;50.096;14.458;2024-03-23T10:59:09;98277.13;;;16.08;50.34
82245;BME280;71849;50.096;14.458;2024-03-23T11:01:53;98287.47;;;16.16;50.49
82245;BME280;71849;50.096;14.458;2024-03-23T11:04:29;98279.31;;;16.30;49.85
82245;BME280;71849;50.096;14.458;2024-03-23T11:06:58;98263.13;;;16.66;49.13
82245;BME280;71849;50.096;14.458;2024-03-23T11:09:39;98266.09;;;16.69;48.31
82245;BME280;71849;50.096;14.458;2024-03-23T11:12:18;98286.44;;;16.50;49.07
82245;BME280;71849;50.096;14.458;2024-03-23T11:14:54;98279.81;;;16.51;48.37
82245;BME280;71849;50.096;14.458;2024-03-23T11:17:21;98266.88;;;16.88;47.64
82245;BME280;71849;50.096;14.458;2024-03-23T11:19:53;98262.16;;;16.75;47.00
82245;BME280;71849;50.096;14.458;2024-03-23T11:22:41;98261.34;;;17.21;46.46
82245;BME280;71849;50.096;14.458;2024-03-23T11:25:23;98264.84;;;17.40;45.27
82245;BME280;71849;50.096;14.458;2024-03-23T11:27:52;98255.13;;;17.02;45.80
82245;BME280;71849;50.096;14.458;2024-03-23T11:30:22;98255.38;;;17.46;43.95
82245;BME280;71849;50.096;14.458;2024-03-23T11:32:49;98263.09;;;17.17;44.31
82245;BME280;71849;50.096;14.458;2024-03-23T11:35:30;98272.63;;;17.06;43.80
82245;BME280;71849;50.096;14.458;2024-03-23T11:38:11;98273.31;;;16.98;43.45
82245;BME280;71849;50.096;14.458;2024-03-23T11:40:38;98278.59;;;17.40;42.76
82245;BME280;71849;50.096;14.458;2024-03-23T11:43:06;98270.09;;;17.09;42.92
82245;BME280;71849;50.096;14.458;2024-03-23T11:45:38;98307.41;;;16.03;43.88
82245;BME280;71849;50.096;14.458;2024-03-23T11:48:06;98403.88;;;13.67;51.66
82245;BME280;71849;50.096;14.458;2024-03-23T11:50:37;98383.03;;;12.45;54.91
82245;BME280;71849;50.096;14.458;2024-03-23T11:53:11;98323.56;;;12.72;53.72
82245;BME280;71849;50.096;14.458;2024-03-23T11:55:42;98366.72;;;12.85;51.34
82245;BME280;71849;50.096;14.458;2024-03-23T11:58:08;98378.22;;;13.43;49.91
82245;BME280;71849;50.096;14.458;2024-03-23T12:00:37;98376.56;;;13.06;50.52
82245;BME280;71849;50.096;14.458;2024-03-23T12:03:04;98376.28;;;12.88;51.26
82245;BME280;71849;50.096;14.458;2024-03-23T12:05:30;98405.97;;;12.54;52.72
82245;BME280;71849;50.096;14.458;2024-03-23T12:08:15;98410.09;;;12.67;51.74
82245;BME280;71849;50.096;14.458;2024-03-23T12:10:43;98411.94;;;12.41;51.47
82245;BME280;71849;50.096;14.458;2024-03-23T12:13:09;98428.97;;;12.83;49.64
82245;BME280;71849;50.096;14.458;2024-03-23T12:15:38;98445.06;;;12.75;49.09
82245;BME280;71849;50.096;14.458;2024-03-23T12:18:07;98422.97;;;11.62;49.36
82245;BME280;71849;50.096;14.458;2024-03-23T12:20:33;98435.59;;;12.20;48.83
82245;BME280;71849;50.096;14.458;2024-03-23T12:23:05;98427.50;;;12.45;47.89
82245;BME280;71849;50.096;14.458;2024-03-23T12:25:32;98439.88;;;12.73;47.92
82245;BME280;71849;50.096;14.458;2024-03-23T12:27:58;98435.16;;;12.53;47.68
82245;BME280;71849;50.096;14.458;2024-03-23T12:30:24;98435.84;;;13.01;46.35
82245;BME280;71849;50.096;14.458;2024-03-23T12:32:53;98447.50;;;12.61;46.39
82245;BME280;71849;50.096;14.458;2024-03-23T12:35:21;98460.66;;;12.84;46.28
82245;BME280;71849;50.096;14.458;2024-03-23T12:37:47;98462.75;;;12.57;45.64
82245;BME280;71849;50.096;14.458;2024-03-23T12:40:14;98461.94;;;11.94;47.18
82245;BME280;71849;50.096;14.458;2024-03-23T12:42:39;98453.69;;;11.84;46.31
82245;BME280;71849;50.096;14.458;2024-03-23T12:45:07;98476.66;;;12.50;45.19
82245;BME280;71849;50.096;14.458;2024-03-23T12:47:33;98475.50;;;11.84;45.57
82245;BME280;71849;50.096;14.458;2024-03-23T12:50:01;98504.72;;;11.94;45.84
82245;BME280;71849;50.096;14.458;2024-03-23T12:52:27;98519.97;;;11.95;44.78
82245;BME280;71849;50.096;14.458;2024-03-23T12:54:58;98557.88;;;11.91;45.13
82245;BME280;71849;50.096;14.458;2024-03-23T12:57:24;98522.13;;;11.88;44.89
82245;BME280;71849;50.096;14.458;2024-03-23T12:59:51;98556.41;;;11.52;45.60
82245;BME280;71849;50.096;14.458;2024-03-23T13:02:18;98543.66;;;11.89;44.32
82245;BME280;71849;50.096;14.458;2024-03-23T13:04:45;98541.97;;;11.78;44.53
82245;BME280;71849;50.096;14.458;2024-03-23T13:07:14;98581.09;;;11.67;44.91
82245;BME280;71849;50.096;14.458;2024-03-23T13:09:40;98587.56;;;11.88;45.20
82245;BME280;71849;50.096;14.458;2024-03-23T13:12:07;98596.81;;;11.87;45.04
82245;BME280;71849;50.096;14.458;2024-03-23T13:14:33;98577.97;;;11.27;46.22
82245;BME280;71849;50.096;14.458;2024-03-23T13:17:01;98638.13;;;12.00;45.03
82245;BME280;71849;50.096;14.458;2024-03-23T13:19:31;98617.19;;;12.11;44.41
82245;BME280;71849;50.096;14.458;2024-03-23T13:21:57;98595.16;;;12.18;44.36
82245;BME280;71849;50.096;14.458;2024-03-23T13:24:26;98618.91;;;11.85;44.59
82245;BME280;71849;50.096;14.458;2024-03-23T13:26:55;98618.78;;;12.07;44.41
82245;BME280;71849;50.096;14.458;2024-03-23T13:29:27;98621.94;;;12.26;43.62
82245;BME280;71849;50.096;14.458;2024-03-23T13:32:03;98606.06;;;12.18;42.61
82245;BME280;71849;50.096;14.458;2024-03-23T13:34:29;98608.56;;;11.87;43.36
82245;BME280;71849;50.096;14.458;2024-03-23T13:36:55;98598.22;;;12.26;42.60
82245;BME280;71849;50.096;14.458;2024-03-23T13:39:25;98616.19;;;12.22;42.94
82245;BME280;71849;50.096;14.458;2024-03-23T13:41:51;98626.84;;;12.24;43.55
82245;BME280;71849;50.096;14.458;2024-03-23T13:44:17;98626.19;;;12.07;43.49